sensor_id;sensor_type;location;lat;lon;timestamp;P1;durP1;ratioP1;P2;durP2;ratioP2
42600;SDS011;28229;48.856;9.088;2022-11-23T00:02:04;7.73;;;2.20;;
42600;SDS011;28229;48.856;9.088;2022-11-23T00:04:29;6.50;;;2.13;;
42600;SDS011;28229;48.856;9.088;2022-11-23T00:06:55;6.87;;;2.30;;
42600;SDS011;28229;48.856;9.088;2022-11-23T00:09:21;4.40;;;2.23;;
42600;SDS011;28229;48.856;9.088;2022-11-23T00:11:47;6.97;;;2.10;;
42600;SDS011;28229;48.856;9.088;2022-11-23T00:14:13;4.17;;;1.90;;
42600;SDS011;28229;48.856;9.088;2022-11-23T00:16:39;5.03;;;1.97;;
42600;SDS011;28229;48.856;9.088;2022-11-23T00:19:04;3.50;;;1.60;;
42600;SDS011;28229;48.856;9.088;2022-11-23T00:21:31;3.17;;;1.77;;
42600;SDS011;28229;48.856;9.088;2022-11-23T00:23:57;2.17;;;1.57;;
42600;SDS011;28229;48.856;9.088;2022-11-23T00:26:24;3.30;;;1.80;;
42600;SDS011;28229;48.856;9.088;2022-11-23T00:28:49;4.27;;;1.77;;
42600;SDS011;28229;48.856;9.088;2022-11-23T00:31:16;3.07;;;1.80;;
42600;SDS011;28229;48.856;9.088;2022-11-23T00:33:50;2.87;;;1.73;;
42600;SDS011;28229;48.856;9.088;2022-11-23T00:36:18;6.23;;;1.93;;
42600;SDS011;28229;48.856;9.088;2022-11-23T00:38:45;3.60;;;2.00;;
42600;SDS011;28229;48.856;9.088;2022-11-23T00:41:13;5.80;;;1.70;;
42600;SDS011;28229;48.856;9.088;2022-11-23T00:43:41;3.93;;;1.93;;
42600;SDS011;28229;48.856;9.088;2022-11-23T00:46:09;6.53;;;1.93;;
42600;SDS011;28229;48.856;9.088;2022-11-23T00:48:35;4.43;;;2.07;;
42600;SDS011;28229;48.856;9.088;2022-11-23T00:51:02;3.20;;;1.93;;
42600;SDS011;28229;48.856;9.088;2022-11-23T00:53:29;5.10;;;2.30;;
42600;SDS011;28229;48.856;9.088;2022-11-23T00:55:55;4.20;;;2.00;;
42600;SDS011;28229;48.856;9.088;2022-11-23T00:58:22;4.50;;;1.97;;
42600;SDS011;28229;48.856;9.088;2022-11-23T01:00:49;4.50;;;2.20;;
42600;SDS011;28229;48.856;9.088;2022-11-23T01:03:15;2.77;;;1.97;;
42600;SDS011;28229;48.856;9.088;2022-11-23T01:05:41;5.37;;;1.90;;
42600;SDS011;28229;48.856;9.088;2022-11-23T01:08:07;5.77;;;2.00;;
42600;SDS011;28229;48.856;9.088;2022-11-23T01:10:33;6.40;;;1.90;;
42600;SDS011;28229;48.856;9.088;2022-11-23T01:13:00;5.20;;;2.03;;
42600;SDS011;28229;48.856;9.088;2022-11-23T01:15:25;4.53;;;1.50;;
42600;SDS011;28229;48.856;9.088;2022-11-23T01:17:51;4.10;;;2.03;;
42600;SDS011;28229;48.856;9.088;2022-11-23T01:20:17;4.93;;;1.70;;
42600;SDS011;28229;48.856;9.088;2022-11-23T01:22:43;4.90;;;2.00;;
42600;SDS011;28229;48.856;9.088;2022-11-23T01:25:09;3.77;;;1.87;;
42600;SDS011;28229;48.856;9.088;2022-11-23T01:27:37;2.97;;;1.50;;
42600;SDS011;28229;48.856;9.088;2022-11-23T01:30:03;6.43;;;1.80;;
42600;SDS011;28229;48.856;9.088;2022-11-23T01:32:31;3.70;;;1.60;;
42600;SDS011;28229;48.856;9.088;2022-11-23T01:34:57;3.00;;;1.70;;
42600;SDS011;28229;48.856;9.088;2022-11-23T01:37:23;3.37;;;1.53;;
42600;SDS011;28229;48.856;9.088;2022-11-23T01:39:50;3.73;;;1.80;;
42600;SDS011;28229;48.856;9.088;2022-11-23T01:42:16;1.77;;;1.50;;
42600;SDS011;28229;48.856;9.088;2022-11-23T01:44:42;4.87;;;2.10;;
42600;SDS011;28229;48.856;9.088;2022-11-23T01:47:08;3.50;;;1.57;;
42600;SDS011;28229;48.856;9.088;2022-11-23T01:49:36;4.57;;;1.70;;
42600;SDS011;28229;48.856;9.088;2022-11-23T01:52:06;3.40;;;1.80;;
42600;SDS011;28229;48.856;9.088;2022-11-23T01:54:48;3.67;;;1.90;;
42600;SDS011;28229;48.856;9.088;2022-11-23T01:57:25;4.23;;;1.70;;
42600;SDS011;28229;48.856;9.088;2022-11-23T01:59:55;5.63;;;1.80;;
42600;SDS011;28229;48.856;9.088;2022-11-23T02:02:22;4.70;;;1.60;;
42600;SDS011;28229;48.856;9.088;2022-11-23T02:04:52;3.23;;;1.77;;
42600;SDS011;28229;48.856;9.088;2022-11-23T02:07:19;3.07;;;1.50;;
42600;SDS011;28229;48.856;9.088;2022-11-23T02:09:49;2.73;;;1.73;;
42600;SDS011;28229;48.856;9.088;2022-11-23T02:12:16;5.47;;;1.67;;
42600;SDS011;28229;48.856;9.088;2022-11-23T02:14:42;4.07;;;1.40;;
42600;SDS011;28229;48.856;9.088;2022-11-23T02:17:09;3.13;;;1.63;;
42600;SDS011;28229;48.856;9.088;2022-11-23T02:23:03;3.53;;;1.77;;
42600;SDS011;28229;48.856;9.088;2022-11-23T02:25:34;3.07;;;1.70;;
42600;SDS011;28229;48.856;9.088;2022-11-23T02:28:08;3.97;;;1.90;;
42600;SDS011;28229;48.856;9.088;2022-11-23T02:30:38;6.53;;;1.73;;
42600;SDS011;28229;48.856;9.088;2022-11-23T02:33:05;3.67;;;1.63;;
42600;SDS011;28229;48.856;9.088;2022-11-23T02:35:31;3.73;;;1.43;;
42600;SDS011;28229;48.856;9.088;2022-11-23T02:37:58;5.97;;;1.97;;
42600;SDS011;28229;48.856;9.088;2022-11-23T02:40:28;4.33;;;1.63;;
42600;SDS011;28229;48.856;9.088;2022-11-23T02:42:57;2.37;;;1.50;;
42600;SDS011;28229;48.856;9.088;2022-11-23T02:48:02;4.30;;;1.80;;
42600;SDS011;28229;48.856;9.088;2022-11-23T02:50:29;4.40;;;1.63;;
42600;SDS011;28229;48.856;9.088;2022-11-23T02:52:55;3.70;;;1.80;;
42600;SDS011;28229;48.856;9.088;2022-11-23T02:55:23;3.10;;;1.53;;
42600;SDS011;28229;48.856;9.088;2022-11-23T02:57:49;6.30;;;1.93;;
42600;SDS011;28229;48.856;9.088;2022-11-23T03:00:15;4.30;;;1.60;;
42600;SDS011;28229;48.856;9.088;2022-11-23T03:02:42;4.10;;;1.60;;
42600;SDS011;28229;48.856;9.088;2022-11-23T03:05:10;3.33;;;1.90;;
42600;SDS011;28229;48.856;9.088;2022-11-23T03:07:36;3.40;;;1.57;;
42600;SDS011;28229;48.856;9.088;2022-11-23T03:10:02;3.40;;;1.63;;
42600;SDS011;28229;48.856;9.088;2022-11-23T03:12:29;5.30;;;1.73;;
42600;SDS011;28229;48.856;9.088;2022-11-23T03:14:55;5.30;;;2.00;;
42600;SDS011;28229;48.856;9.088;2022-11-23T03:17:22;5.00;;;1.77;;
42600;SDS011;28229;48.856;9.088;2022-11-23T03:19:49;4.20;;;1.80;;
42600;SDS011;28229;48.856;9.088;2022-11-23T03:22:14;5.67;;;1.53;;
42600;SDS011;28229;48.856;9.088;2022-11-23T03:24:40;6.57;;;2.07;;
42600;SDS011;28229;48.856;9.088;2022-11-23T03:27:11;4.53;;;1.83;;
42600;SDS011;28229;48.856;9.088;2022-11-23T03:29:39;3.53;;;1.60;;
42600;SDS011;28229;48.856;9.088;2022-11-23T03:32:10;3.03;;;1.60;;
42600;SDS011;28229;48.856;9.088;2022-11-23T03:34:37;6.63;;;1.87;;
42600;SDS011;28229;48.856;9.088;2022-11-23T03:37:04;4.03;;;1.60;;
42600;SDS011;28229;48.856;9.088;2022-11-23T03:39:30;3.83;;;1.40;;
42600;SDS011;28229;48.856;9.088;2022-11-23T03:42:16;4.67;;;1.73;;
42600;SDS011;28229;48.856;9.088;2022-11-23T03:44:44;1.80;;;1.30;;
42600;SDS011;28229;48.856;9.088;2022-11-23T03:47:09;7.37;;;1.73;;
42600;SDS011;28229;48.856;9.088;2022-11-23T03:49:36;3.13;;;1.40;;
42600;SDS011;28229;48.856;9.088;2022-11-23T03:52:02;4.90;;;1.60;;
42600;SDS011;28229;48.856;9.088;2022-11-23T03:54:28;5.57;;;1.60;;
42600;SDS011;28229;48.856;9.088;2022-11-23T03:56:54;3.17;;;1.60;;
42600;SDS011;28229;48.856;9.088;2022-11-23T03:59:20;3.83;;;1.40;;
42600;SDS011;28229;48.856;9.088;2022-11-23T04:01:46;5.73;;;1.70;;
42600;SDS011;28229;48.856;9.088;2022-11-23T04:04:18;3.57;;;1.70;;
42600;SDS011;28229;48.856;9.088;2022-11-23T04:07:06;3.93;;;1.60;;
42600;SDS011;28229;48.856;9.088;2022-11-23T04:09:38;3.93;;;1.40;;
42600;SDS011;28229;48.856;9.088;2022-11-23T04:12:03;5.37;;;1.47;;
42600;SDS011;28229;48.856;9.088;2022-11-23T04:14:30;4.93;;;1.73;;
42600;SDS011;28229;48.856;9.088;2022-11-23T04:16:57;3.60;;;2.00;;
42600;SDS011;28229;48.856;9.088;2022-11-23T04:19:23;5.80;;;1.50;;
42600;SDS011;28229;48.856;9.088;2022-11-23T04:21:49;4.30;;;1.60;;
42600;SDS011;28229;48.856;9.088;2022-11-23T04:24:15;5.53;;;1.30;;
42600;SDS011;28229;48.856;9.088;2022-11-23T04:26:42;4.17;;;1.50;;
42600;SDS011;28229;48.856;9.088;2022-11-23T04:29:09;4.33;;;1.73;;
42600;SDS011;28229;48.856;9.088;2022-11-23T04:31:39;3.30;;;1.60;;
42600;SDS011;28229;48.856;9.088;2022-11-23T04:34:13;3.33;;;1.73;;
42600;SDS011;28229;48.856;9.088;2022-11-23T04:36:40;4.03;;;1.70;;
42600;SDS011;28229;48.856;9.088;2022-11-23T04:39:09;3.37;;;1.40;;
42600;SDS011;28229;48.856;9.088;2022-11-23T04:41:45;4.13;;;1.70;;
42600;SDS011;28229;48.856;9.088;2022-11-23T04:44:11;9.07;;;7.87;;
42600;SDS011;28229;48.856;9.088;2022-11-23T04:46:38;6.17;;;3.77;;
42600;SDS011;28229;48.856;9.088;2022-11-23T04:49:08;8.13;;;4.97;;
42600;SDS011;28229;48.856;9.088;2022-11-23T04:51:35;4.67;;;3.13;;
42600;SDS011;28229;48.856;9.088;2022-11-23T04:54:01;12.20;;;6.30;;
42600;SDS011;28229;48.856;9.088;2022-11-23T04:56:32;4.23;;;1.90;;
42600;SDS011;28229;48.856;9.088;2022-11-23T04:58:58;4.13;;;1.90;;
42600;SDS011;28229;48.856;9.088;2022-11-23T05:01:23;3.03;;;1.77;;
42600;SDS011;28229;48.856;9.088;2022-11-23T05:04:08;3.87;;;1.83;;
42600;SDS011;28229;48.856;9.088;2022-11-23T05:06:34;3.43;;;1.50;;
42600;SDS011;28229;48.856;9.088;2022-11-23T05:09:02;3.07;;;2.03;;
42600;SDS011;28229;48.856;9.088;2022-11-23T05:11:44;2.73;;;1.80;;
42600;SDS011;28229;48.856;9.088;2022-11-23T05:14:11;5.30;;;2.10;;
42600;SDS011;28229;48.856;9.088;2022-11-23T05:16:38;4.30;;;2.10;;
42600;SDS011;28229;48.856;9.088;2022-11-23T05:19:03;4.00;;;2.00;;
42600;SDS011;28229;48.856;9.088;2022-11-23T05:21:29;5.37;;;2.40;;
42600;SDS011;28229;48.856;9.088;2022-11-23T05:23:55;5.07;;;2.17;;
42600;SDS011;28229;48.856;9.088;2022-11-23T05:26:21;3.00;;;1.93;;
42600;SDS011;28229;48.856;9.088;2022-11-23T05:28:47;4.47;;;1.70;;
42600;SDS011;28229;48.856;9.088;2022-11-23T05:31:14;2.83;;;1.70;;
42600;SDS011;28229;48.856;9.088;2022-11-23T05:33:42;5.17;;;2.00;;
42600;SDS011;28229;48.856;9.088;2022-11-23T05:36:08;4.37;;;2.00;;
42600;SDS011;28229;48.856;9.088;2022-11-23T05:38:39;6.83;;;2.03;;
42600;SDS011;28229;48.856;9.088;2022-11-23T05:41:11;4.23;;;2.17;;
42600;SDS011;28229;48.856;9.088;2022-11-23T05:43:39;4.60;;;2.33;;
42600;SDS011;28229;48.856;9.088;2022-11-23T05:46:08;3.17;;;1.70;;
42600;SDS011;28229;48.856;9.088;2022-11-23T05:48:35;2.33;;;2.07;;
42600;SDS011;28229;48.856;9.088;2022-11-23T05:51:07;4.03;;;2.10;;
42600;SDS011;28229;48.856;9.088;2022-11-23T05:53:35;2.87;;;1.70;;
42600;SDS011;28229;48.856;9.088;2022-11-23T05:56:22;3.47;;;2.00;;
42600;SDS011;28229;48.856;9.088;2022-11-23T05:59:03;6.93;;;3.10;;
42600;SDS011;28229;48.856;9.088;2022-11-23T06:01:32;8.40;;;3.50;;
42600;SDS011;28229;48.856;9.088;2022-11-23T06:04:00;7.97;;;6.50;;
42600;SDS011;28229;48.856;9.088;2022-11-23T06:06:31;6.50;;;4.00;;
42600;SDS011;28229;48.856;9.088;2022-11-23T06:08:57;8.50;;;3.80;;
42600;SDS011;28229;48.856;9.088;2022-11-23T06:11:23;7.67;;;2.90;;
42600;SDS011;28229;48.856;9.088;2022-11-23T06:13:49;6.43;;;2.77;;
42600;SDS011;28229;48.856;9.088;2022-11-23T06:16:16;5.77;;;1.93;;
42600;SDS011;28229;48.856;9.088;2022-11-23T06:18:54;4.40;;;2.60;;
42600;SDS011;28229;48.856;9.088;2022-11-23T06:21:20;5.07;;;2.07;;
42600;SDS011;28229;48.856;9.088;2022-11-23T06:23:46;3.53;;;2.00;;
42600;SDS011;28229;48.856;9.088;2022-11-23T06:26:13;5.63;;;2.30;;
42600;SDS011;28229;48.856;9.088;2022-11-23T06:28:39;4.93;;;2.40;;
42600;SDS011;28229;48.856;9.088;2022-11-23T06:31:08;6.60;;;2.70;;
42600;SDS011;28229;48.856;9.088;2022-11-23T06:33:35;6.10;;;2.50;;
42600;SDS011;28229;48.856;9.088;2022-11-23T06:36:02;4.33;;;2.10;;
42600;SDS011;28229;48.856;9.088;2022-11-23T06:38:44;3.73;;;1.97;;
42600;SDS011;28229;48.856;9.088;2022-11-23T06:41:13;5.47;;;2.30;;
42600;SDS011;28229;48.856;9.088;2022-11-23T06:43:39;4.20;;;1.97;;
42600;SDS011;28229;48.856;9.088;2022-11-23T06:46:05;6.17;;;1.83;;
42600;SDS011;28229;48.856;9.088;2022-11-23T06:48:35;3.83;;;2.03;;
42600;SDS011;28229;48.856;9.088;2022-11-23T06:51:01;10.33;;;4.27;;
42600;SDS011;28229;48.856;9.088;2022-11-23T06:53:29;28.17;;;11.03;;
42600;SDS011;28229;48.856;9.088;2022-11-23T06:56:00;60.47;;;22.47;;
42600;SDS011;28229;48.856;9.088;2022-11-23T06:58:28;64.83;;;22.57;;
42600;SDS011;28229;48.856;9.088;2022-11-23T07:00:58;18.90;;;8.07;;
42600;SDS011;28229;48.856;9.088;2022-11-23T07:03:24;6.57;;;3.03;;
42600;SDS011;28229;48.856;9.088;2022-11-23T07:06:07;6.03;;;2.63;;
42600;SDS011;28229;48.856;9.088;2022-11-23T07:08:35;4.33;;;2.23;;
42600;SDS011;28229;48.856;9.088;2022-11-23T07:11:18;4.67;;;1.90;;
42600;SDS011;28229;48.856;9.088;2022-11-23T07:13:43;6.00;;;2.33;;
42600;SDS011;28229;48.856;9.088;2022-11-23T07:16:09;8.70;;;2.73;;
42600;SDS011;28229;48.856;9.088;2022-11-23T07:18:36;11.37;;;3.73;;
42600;SDS011;28229;48.856;9.088;2022-11-23T07:21:02;8.80;;;4.03;;
42600;SDS011;28229;48.856;9.088;2022-11-23T07:23:28;10.30;;;4.80;;
42600;SDS011;28229;48.856;9.088;2022-11-23T07:25:54;9.80;;;3.90;;
42600;SDS011;28229;48.856;9.088;2022-11-23T07:28:21;11.47;;;4.83;;
42600;SDS011;28229;48.856;9.088;2022-11-23T07:30:48;10.17;;;4.33;;
42600;SDS011;28229;48.856;9.088;2022-11-23T07:33:17;6.03;;;2.70;;
42600;SDS011;28229;48.856;9.088;2022-11-23T07:35:49;4.67;;;1.90;;
42600;SDS011;28229;48.856;9.088;2022-11-23T07:38:20;5.13;;;1.93;;
42600;SDS011;28229;48.856;9.088;2022-11-23T07:40:51;8.30;;;2.10;;
42600;SDS011;28229;48.856;9.088;2022-11-23T07:43:37;4.73;;;2.00;;
42600;SDS011;28229;48.856;9.088;2022-11-23T07:46:03;4.03;;;2.03;;
42600;SDS011;28229;48.856;9.088;2022-11-23T07:48:29;5.50;;;2.30;;
42600;SDS011;28229;48.856;9.088;2022-11-23T07:50:55;7.07;;;3.10;;
42600;SDS011;28229;48.856;9.088;2022-11-23T07:53:20;4.67;;;2.00;;
42600;SDS011;28229;48.856;9.088;2022-11-23T07:55:48;6.70;;;2.73;;
42600;SDS011;28229;48.856;9.088;2022-11-23T07:58:14;6.43;;;3.37;;
42600;SDS011;28229;48.856;9.088;2022-11-23T08:00:39;9.33;;;3.03;;
42600;SDS011;28229;48.856;9.088;2022-11-23T08:03:05;7.33;;;2.80;;
42600;SDS011;28229;48.856;9.088;2022-11-23T08:05:31;8.43;;;4.47;;
42600;SDS011;28229;48.856;9.088;2022-11-23T08:07:58;13.10;;;5.50;;
42600;SDS011;28229;48.856;9.088;2022-11-23T08:10:25;9.07;;;3.50;;
42600;SDS011;28229;48.856;9.088;2022-11-23T08:12:55;4.10;;;1.93;;
42600;SDS011;28229;48.856;9.088;2022-11-23T08:15:22;4.67;;;1.97;;
42600;SDS011;28229;48.856;9.088;2022-11-23T08:17:52;7.77;;;2.40;;
42600;SDS011;28229;48.856;9.088;2022-11-23T08:20:20;4.70;;;2.60;;
42600;SDS011;28229;48.856;9.088;2022-11-23T08:22:45;5.03;;;2.10;;
42600;SDS011;28229;48.856;9.088;2022-11-23T08:25:11;6.13;;;2.60;;
42600;SDS011;28229;48.856;9.088;2022-11-23T08:27:37;5.90;;;2.03;;
42600;SDS011;28229;48.856;9.088;2022-11-23T08:30:03;3.17;;;1.80;;
42600;SDS011;28229;48.856;9.088;2022-11-23T08:32:39;5.00;;;2.80;;
42600;SDS011;28229;48.856;9.088;2022-11-23T08:35:05;6.83;;;3.10;;
42600;SDS011;28229;48.856;9.088;2022-11-23T08:37:31;6.97;;;2.80;;
42600;SDS011;28229;48.856;9.088;2022-11-23T08:39:57;5.40;;;2.37;;
42600;SDS011;28229;48.856;9.088;2022-11-23T08:42:22;4.60;;;2.53;;
42600;SDS011;28229;48.856;9.088;2022-11-23T08:44:48;3.50;;;1.80;;
42600;SDS011;28229;48.856;9.088;2022-11-23T08:47:14;4.63;;;1.60;;
42600;SDS011;28229;48.856;9.088;2022-11-23T08:49:40;5.03;;;1.53;;
42600;SDS011;28229;48.856;9.088;2022-11-23T08:52:06;8.00;;;2.03;;
42600;SDS011;28229;48.856;9.088;2022-11-23T08:54:31;5.40;;;1.97;;
42600;SDS011;28229;48.856;9.088;2022-11-23T08:56:57;5.77;;;2.00;;
42600;SDS011;28229;48.856;9.088;2022-11-23T08:59:23;4.23;;;1.57;;
42600;SDS011;28229;48.856;9.088;2022-11-23T09:01:49;5.93;;;1.90;;
42600;SDS011;28229;48.856;9.088;2022-11-23T09:04:15;3.83;;;1.33;;
42600;SDS011;28229;48.856;9.088;2022-11-23T09:06:41;3.73;;;1.70;;
42600;SDS011;28229;48.856;9.088;2022-11-23T09:09:07;5.17;;;1.80;;
42600;SDS011;28229;48.856;9.088;2022-11-23T09:11:32;4.37;;;1.60;;
42600;SDS011;28229;48.856;9.088;2022-11-23T09:13:58;6.90;;;2.10;;
42600;SDS011;28229;48.856;9.088;2022-11-23T09:16:24;4.67;;;1.83;;
42600;SDS011;28229;48.856;9.088;2022-11-23T09:18:53;6.43;;;1.40;;
42600;SDS011;28229;48.856;9.088;2022-11-23T09:21:20;3.10;;;1.60;;
42600;SDS011;28229;48.856;9.088;2022-11-23T09:23:45;4.47;;;1.90;;
42600;SDS011;28229;48.856;9.088;2022-11-23T09:26:11;5.03;;;1.97;;
42600;SDS011;28229;48.856;9.088;2022-11-23T09:28:37;6.87;;;2.90;;
42600;SDS011;28229;48.856;9.088;2022-11-23T09:31:03;5.63;;;3.30;;
42600;SDS011;28229;48.856;9.088;2022-11-23T09:33:29;7.10;;;2.50;;
42600;SDS011;28229;48.856;9.088;2022-11-23T09:36:01;3.43;;;1.40;;
42600;SDS011;28229;48.856;9.088;2022-11-23T09:38:28;3.97;;;1.83;;
42600;SDS011;28229;48.856;9.088;2022-11-23T09:41:41;7.20;;;1.70;;
42600;SDS011;28229;48.856;9.088;2022-11-23T09:44:11;3.10;;;1.47;;
42600;SDS011;28229;48.856;9.088;2022-11-23T09:52:18;4.80;;;1.87;;
42600;SDS011;28229;48.856;9.088;2022-11-23T09:54:48;2.97;;;1.20;;
42600;SDS011;28229;48.856;9.088;2022-11-23T09:57:21;5.17;;;1.50;;
42600;SDS011;28229;48.856;9.088;2022-11-23T09:59:53;3.43;;;1.33;;
42600;SDS011;28229;48.856;9.088;2022-11-23T10:02:25;3.50;;;1.43;;
42600;SDS011;28229;48.856;9.088;2022-11-23T10:04:54;2.53;;;1.37;;
42600;SDS011;28229;48.856;9.088;2022-11-23T10:07:26;16.53;;;5.70;;
42600;SDS011;28229;48.856;9.088;2022-11-23T10:10:21;22.43;;;8.20;;
42600;SDS011;28229;48.856;9.088;2022-11-23T10:21:36;4.20;;;1.57;;
42600;SDS011;28229;48.856;9.088;2022-11-23T10:24:16;1.90;;;1.00;;
42600;SDS011;28229;48.856;9.088;2022-11-23T10:26:47;8.97;;;4.20;;
42600;SDS011;28229;48.856;9.088;2022-11-23T10:29:30;11.77;;;5.83;;
42600;SDS011;28229;48.856;9.088;2022-11-23T10:31:59;12.30;;;5.90;;
42600;SDS011;28229;48.856;9.088;2022-11-23T10:37:11;6.93;;;3.83;;
42600;SDS011;28229;48.856;9.088;2022-11-23T10:39:38;4.70;;;1.50;;
42600;SDS011;28229;48.856;9.088;2022-11-23T10:42:17;5.00;;;1.77;;
42600;SDS011;28229;48.856;9.088;2022-11-23T10:44:55;2.93;;;1.30;;
42600;SDS011;28229;48.856;9.088;2022-11-23T10:47:39;3.53;;;1.77;;
42600;SDS011;28229;48.856;9.088;2022-11-23T10:50:18;3.87;;;1.50;;
42600;SDS011;28229;48.856;9.088;2022-11-23T10:55:32;3.50;;;1.30;;
42600;SDS011;28229;48.856;9.088;2022-11-23T10:58:22;2.47;;;1.10;;
42600;SDS011;28229;48.856;9.088;2022-11-23T11:01:01;3.17;;;1.10;;
42600;SDS011;28229;48.856;9.088;2022-11-23T11:03:30;2.87;;;1.13;;
42600;SDS011;28229;48.856;9.088;2022-11-23T11:05:58;2.37;;;1.03;;
42600;SDS011;28229;48.856;9.088;2022-11-23T11:08:29;4.67;;;1.50;;
42600;SDS011;28229;48.856;9.088;2022-11-23T11:13:42;3.37;;;1.30;;
42600;SDS011;28229;48.856;9.088;2022-11-23T11:18:44;2.63;;;1.13;;
42600;SDS011;28229;48.856;9.088;2022-11-23T11:21:20;2.00;;;1.10;;
42600;SDS011;28229;48.856;9.088;2022-11-23T11:23:55;3.43;;;1.10;;
42600;SDS011;28229;48.856;9.088;2022-11-23T11:26:25;2.53;;;1.30;;
42600;SDS011;28229;48.856;9.088;2022-11-23T11:28:57;1.97;;;1.00;;
42600;SDS011;28229;48.856;9.088;2022-11-23T11:34:20;2.80;;;1.00;;
42600;SDS011;28229;48.856;9.088;2022-11-23T11:42:22;2.13;;;1.10;;
42600;SDS011;28229;48.856;9.088;2022-11-23T11:45:03;2.70;;;1.20;;
42600;SDS011;28229;48.856;9.088;2022-11-23T11:47:40;3.77;;;1.40;;
42600;SDS011;28229;48.856;9.088;2022-11-23T11:50:18;2.57;;;1.20;;
42600;SDS011;28229;48.856;9.088;2022-11-23T11:52:49;2.83;;;1.30;;
42600;SDS011;28229;48.856;9.088;2022-11-23T11:55:22;3.30;;;1.20;;
42600;SDS011;28229;48.856;9.088;2022-11-23T11:57:55;2.77;;;1.40;;
42600;SDS011;28229;48.856;9.088;2022-11-23T12:00:33;2.33;;;1.03;;
42600;SDS011;28229;48.856;9.088;2022-11-23T12:05:50;2.43;;;1.10;;
42600;SDS011;28229;48.856;9.088;2022-11-23T12:08:25;3.07;;;1.10;;
42600;SDS011;28229;48.856;9.088;2022-11-23T12:10:56;3.13;;;1.30;;
42600;SDS011;28229;48.856;9.088;2022-11-23T12:13:26;3.13;;;1.10;;
42600;SDS011;28229;48.856;9.088;2022-11-23T12:15:57;1.97;;;1.30;;
42600;SDS011;28229;48.856;9.088;2022-11-23T12:18:35;3.33;;;1.30;;
42600;SDS011;28229;48.856;9.088;2022-11-23T12:23:58;3.57;;;2.00;;
42600;SDS011;28229;48.856;9.088;2022-11-23T12:26:51;7.30;;;3.37;;
42600;SDS011;28229;48.856;9.088;2022-11-23T12:32:13;4.17;;;2.40;;
42600;SDS011;28229;48.856;9.088;2022-11-23T12:49:17;4.63;;;1.80;;
42600;SDS011;28229;48.856;9.088;2022-11-23T12:55:08;2.23;;;1.10;;
42600;SDS011;28229;48.856;9.088;2022-11-23T12:58:30;2.67;;;1.13;;
42600;SDS011;28229;48.856;9.088;2022-11-23T13:07:08;2.63;;;1.60;;
42600;SDS011;28229;48.856;9.088;2022-11-23T13:15:25;2.27;;;1.07;;
42600;SDS011;28229;48.856;9.088;2022-11-23T13:23:33;2.47;;;1.83;;
42600;SDS011;28229;48.856;9.088;2022-11-23T13:26:20;4.90;;;3.10;;
42600;SDS011;28229;48.856;9.088;2022-11-23T13:28:48;3.57;;;1.50;;
42600;SDS011;28229;48.856;9.088;2022-11-23T13:33:48;1.67;;;1.20;;
42600;SDS011;28229;48.856;9.088;2022-11-23T13:38:58;3.20;;;1.27;;
42600;SDS011;28229;48.856;9.088;2022-11-23T13:44:11;3.07;;;1.20;;
42600;SDS011;28229;48.856;9.088;2022-11-23T13:47:06;1.93;;;1.13;;
42600;SDS011;28229;48.856;9.088;2022-11-23T13:57:44;1.67;;;1.40;;
42600;SDS011;28229;48.856;9.088;2022-11-23T14:00:44;3.73;;;1.10;;
42600;SDS011;28229;48.856;9.088;2022-11-23T14:06:48;1.30;;;1.10;;
42600;SDS011;28229;48.856;9.088;2022-11-23T14:15:06;2.63;;;1.10;;
42600;SDS011;28229;48.856;9.088;2022-11-23T14:21:04;2.40;;;1.60;;
42600;SDS011;28229;48.856;9.088;2022-11-23T14:26:32;1.93;;;1.03;;
42600;SDS011;28229;48.856;9.088;2022-11-23T14:29:08;3.03;;;1.40;;
42600;SDS011;28229;48.856;9.088;2022-11-23T14:34:45;2.53;;;1.67;;
42600;SDS011;28229;48.856;9.088;2022-11-23T14:37:31;2.10;;;1.53;;
42600;SDS011;28229;48.856;9.088;2022-11-23T14:40:11;4.60;;;1.90;;
42600;SDS011;28229;48.856;9.088;2022-11-23T14:42:49;1.93;;;1.23;;
42600;SDS011;28229;48.856;9.088;2022-11-23T14:45:18;4.07;;;1.50;;
42600;SDS011;28229;48.856;9.088;2022-11-23T14:47:45;1.90;;;1.17;;
42600;SDS011;28229;48.856;9.088;2022-11-23T14:50:21;4.03;;;1.60;;
42600;SDS011;28229;48.856;9.088;2022-11-23T14:52:49;4.93;;;2.90;;
42600;SDS011;28229;48.856;9.088;2022-11-23T14:55:19;2.47;;;2.20;;
42600;SDS011;28229;48.856;9.088;2022-11-23T14:57:49;4.00;;;2.07;;
42600;SDS011;28229;48.856;9.088;2022-11-23T15:00:22;1.50;;;1.40;;
42600;SDS011;28229;48.856;9.088;2022-11-23T15:02:49;4.50;;;1.90;;
42600;SDS011;28229;48.856;9.088;2022-11-23T15:05:34;3.30;;;1.70;;
42600;SDS011;28229;48.856;9.088;2022-11-23T15:08:09;3.20;;;2.13;;
42600;SDS011;28229;48.856;9.088;2022-11-23T15:11:04;3.47;;;2.30;;
42600;SDS011;28229;48.856;9.088;2022-11-23T15:13:44;5.10;;;1.60;;
42600;SDS011;28229;48.856;9.088;2022-11-23T15:16:13;3.07;;;1.70;;
42600;SDS011;28229;48.856;9.088;2022-11-23T15:18:40;3.10;;;1.60;;
42600;SDS011;28229;48.856;9.088;2022-11-23T15:23:38;3.73;;;2.00;;
42600;SDS011;28229;48.856;9.088;2022-11-23T15:28:48;4.57;;;1.50;;
42600;SDS011;28229;48.856;9.088;2022-11-23T15:31:16;3.07;;;1.50;;
42600;SDS011;28229;48.856;9.088;2022-11-23T15:33:52;3.23;;;1.57;;
42600;SDS011;28229;48.856;9.088;2022-11-23T15:36:22;3.27;;;1.93;;
42600;SDS011;28229;48.856;9.088;2022-11-23T15:38:53;2.63;;;1.90;;
42600;SDS011;28229;48.856;9.088;2022-11-23T15:41:20;2.10;;;1.80;;
42600;SDS011;28229;48.856;9.088;2022-11-23T15:43:52;3.23;;;1.90;;
42600;SDS011;28229;48.856;9.088;2022-11-23T15:46:26;2.67;;;1.83;;
42600;SDS011;28229;48.856;9.088;2022-11-23T15:48:59;3.53;;;1.60;;
42600;SDS011;28229;48.856;9.088;2022-11-23T15:51:28;3.20;;;1.80;;
42600;SDS011;28229;48.856;9.088;2022-11-23T15:53:59;3.33;;;1.97;;
42600;SDS011;28229;48.856;9.088;2022-11-23T15:56:29;2.00;;;1.80;;
42600;SDS011;28229;48.856;9.088;2022-11-23T15:58:58;3.70;;;1.90;;
42600;SDS011;28229;48.856;9.088;2022-11-23T16:01:27;3.17;;;1.80;;
42600;SDS011;28229;48.856;9.088;2022-11-23T16:03:54;7.83;;;4.03;;
42600;SDS011;28229;48.856;9.088;2022-11-23T16:09:00;3.83;;;2.00;;
42600;SDS011;28229;48.856;9.088;2022-11-23T16:11:27;5.47;;;2.30;;
42600;SDS011;28229;48.856;9.088;2022-11-23T16:16:38;3.97;;;1.83;;
42600;SDS011;28229;48.856;9.088;2022-11-23T16:19:05;2.70;;;1.87;;
42600;SDS011;28229;48.856;9.088;2022-11-23T16:21:45;3.40;;;2.07;;
42600;SDS011;28229;48.856;9.088;2022-11-23T16:24:17;2.90;;;1.73;;
42600;SDS011;28229;48.856;9.088;2022-11-23T16:26:46;3.13;;;2.17;;
42600;SDS011;28229;48.856;9.088;2022-11-23T16:29:23;2.60;;;1.80;;
42600;SDS011;28229;48.856;9.088;2022-11-23T16:31:52;2.50;;;2.13;;
42600;SDS011;28229;48.856;9.088;2022-11-23T16:34:23;4.87;;;2.67;;
42600;SDS011;28229;48.856;9.088;2022-11-23T16:36:49;4.63;;;2.20;;
42600;SDS011;28229;48.856;9.088;2022-11-23T16:39:15;4.47;;;2.43;;
42600;SDS011;28229;48.856;9.088;2022-11-23T16:41:41;3.10;;;1.70;;
42600;SDS011;28229;48.856;9.088;2022-11-23T16:44:07;2.33;;;2.00;;
42600;SDS011;28229;48.856;9.088;2022-11-23T16:46:32;3.03;;;1.70;;
42600;SDS011;28229;48.856;9.088;2022-11-23T16:48:59;2.40;;;1.80;;
42600;SDS011;28229;48.856;9.088;2022-11-23T16:51:25;3.50;;;2.10;;
42600;SDS011;28229;48.856;9.088;2022-11-23T16:53:51;3.17;;;2.10;;
42600;SDS011;28229;48.856;9.088;2022-11-23T16:56:19;17.97;;;10.83;;
42600;SDS011;28229;48.856;9.088;2022-11-23T16:58:48;45.27;;;30.70;;
42600;SDS011;28229;48.856;9.088;2022-11-23T17:01:19;23.03;;;18.00;;
42600;SDS011;28229;48.856;9.088;2022-11-23T17:03:47;10.27;;;7.90;;
42600;SDS011;28229;48.856;9.088;2022-11-23T17:06:14;7.50;;;5.37;;
42600;SDS011;28229;48.856;9.088;2022-11-23T17:08:44;8.00;;;5.20;;
42600;SDS011;28229;48.856;9.088;2022-11-23T17:11:14;8.50;;;4.80;;